Port Hope, MI

9:45 AM EST on February 18, 2019 (GMT -0500)
Eastwatch-by-the-Sea | | Change Station

Elev 565 ft 43.95 °N, 82.72 °W | Updated 6 seconds ago

Light Snow
Light Snow
21.2 °F
Feels Like 8 °F
N
13.87
Wind Variable Wind from North
Gusts 15.0 mph

Today
High -- | Low -- °F
--% Chance of Precip.
Yesterday
High -- | Low -- °F
Precip. -- in
Pressure 30.14 in
Visibility 10.0 miles
Clouds Scattered Clouds 1500 ft
Mostly Cloudy 2200 ft
Mostly Cloudy 6000 ft
Windchill 8 °F
Dew Point 8 °F
Humidity 55%
Rainfall 0.00 in
Snow Depth Not available.
7:25 AM 6:04 PM
Waxing Gibbous, 98% visible
METAR KBAX 181435Z AUTO 01010G16KT 10SM -SN SCT015 BKN022 BKN060 M06/M09 A3014 RMK AO2 T10621092
Pressure 30.14 in
Visibility 10.0 miles
Clouds Scattered Clouds 1500 ft
Mostly Cloudy 2200 ft
Mostly Cloudy 6000 ft
Windchill 8 °F
Dew Point 8 °F
Humidity 55%
Rainfall 0.00 in
Snow Depth Not available.
7:25 AM 6:04 PM
Waxing Gibbous, 98% visible
METAR KBAX 181435Z AUTO 01010G16KT 10SM -SN SCT015 BKN022 BKN060 M06/M09 A3014 RMK AO2 T10621092

Get Severe Weather Alerts

Thanks for signing up!

Be on the lookout for a verification email in your inbox.

You'll start receiving the daily forecast at 6 AM.

×

10-Day Weather Forecast

Almanac

Astronomy

Feb. 18, 2019 Rise Set
Actual Time
Civil Twilight
Nautical Twilight
Astronomical Twilight
Moon
Length of Visible Light
Length of Day
Tomorrow will be .
, % of the Moon is Illuminated

Today's Extremes

State Highs State Lows

Community

WunderPhotos

Category 6

Welcome to Category 6. This is the collective home for Weather Underground's featured writeups by Dr. Jeff Masters (right), Bob Henson (left), Chris Burt, and other regular contributors.

Nearby

Air Quality

  Air Quality AQ Index Pollutant
Not available.

Snow Depth

Station Depth Elevation

Earthquake Activity

City Distance Mag. Time & Date
Minimum magnitude displayed is 2.5.

Coastal Water Temperatures

Place Temperature

Stations

Nearby Weather Stations

Station Location Temp. Windchill Dew Point Humidity Wind Precip. Elev Updated Type
                   

Watches & Warnings

There are currently no watches in effect.